createdAt,value
2022-10-11T00:01:01.651Z,7.10
2022-10-11T00:06:06.629Z,5.80
2022-10-11T00:08:35.529Z,6.40
2022-10-11T00:11:07.648Z,6.40
2022-10-11T00:13:36.074Z,5.80
2022-10-11T00:16:12.345Z,5.50
2022-10-11T00:18:40.612Z,5.70
2022-10-11T00:21:13.119Z,6.10
2022-10-11T00:23:42.372Z,6.00
2022-10-11T00:26:11.747Z,6.50
2022-10-11T00:28:40.565Z,5.60
2022-10-11T00:31:13.612Z,5.90
2022-10-11T00:33:41.843Z,5.20
2022-10-11T00:36:14.461Z,6.70
2022-10-11T00:38:43.333Z,5.60
2022-10-11T00:41:12.036Z,6.60
2022-10-11T00:43:40.584Z,6.10
2022-10-11T00:46:17.357Z,6.20
2022-10-11T00:48:53.412Z,6.60
2022-10-11T00:51:37.982Z,5.40
2022-10-11T00:54:11.578Z,5.60
2022-10-11T00:56:41.532Z,5.50
2022-10-11T00:59:18.438Z,7.10
2022-10-11T01:01:46.652Z,6.30
2022-10-11T01:04:14.813Z,5.70
2022-10-11T01:06:44.039Z,6.10
2022-10-11T01:09:13.719Z,6.00
2022-10-11T01:11:44.189Z,5.70
2022-10-11T01:15:02.304Z,5.50
2022-10-11T01:18:06.934Z,6.30
2022-10-11T01:21:09.303Z,6.40
2022-10-11T01:23:58.477Z,6.50
2022-10-11T01:26:47.569Z,6.20
2022-10-11T01:29:42.233Z,6.00
2022-10-11T01:32:35.398Z,6.50
2022-10-11T01:35:24.152Z,7.40
2022-10-11T01:38:13.942Z,5.40
2022-10-11T01:40:58.590Z,5.90
2022-10-11T01:43:28.442Z,5.90
2022-10-11T01:46:01.162Z,6.30
2022-10-11T01:48:30.180Z,6.20
2022-10-11T01:51:03.461Z,7.10
2022-10-11T01:54:01.652Z,5.60
2022-10-11T01:57:22.710Z,5.30
2022-10-11T02:00:09.271Z,6.10
2022-10-11T02:03:02.437Z,6.00
2022-10-11T02:05:53.456Z,7.00
2022-10-11T02:09:05.750Z,6.00
2022-10-11T02:11:38.757Z,5.90
2022-10-11T02:14:24.546Z,6.10
2022-10-11T02:17:04.273Z,6.30
2022-10-11T02:19:42.956Z,6.40
2022-10-11T02:22:23.172Z,5.90
2022-10-11T02:24:57.768Z,6.30
2022-10-11T02:27:30.700Z,5.90
2022-10-11T02:30:04.577Z,6.70
2022-10-11T02:32:34.465Z,6.20
2022-10-11T02:35:03.662Z,7.60
2022-10-11T02:37:44.653Z,6.30
2022-10-11T02:40:30.944Z,6.70
2022-10-11T02:43:26.157Z,6.30
2022-10-11T02:45:59.989Z,6.30
2022-10-11T02:48:29.501Z,6.30
2022-10-11T02:50:58.702Z,6.10
2022-10-11T02:53:27.356Z,6.80
2022-10-11T02:55:56.215Z,6.20
2022-10-11T02:58:25.010Z,6.30
2022-10-11T03:00:53.108Z,6.50
2022-10-11T03:03:21.280Z,6.10
2022-10-11T03:05:49.454Z,5.70
2022-10-11T03:08:18.357Z,6.40
2022-10-11T03:10:46.191Z,5.70
2022-10-11T03:13:18.175Z,5.80
2022-10-11T03:16:07.221Z,6.60
2022-10-11T03:18:35.792Z,6.40
2022-10-11T03:21:04.101Z,6.50
2022-10-11T03:23:32.312Z,6.70
2022-10-11T03:26:00.281Z,6.20
2022-10-11T03:28:28.682Z,6.20
2022-10-11T03:30:57.100Z,5.40
2022-10-11T03:33:25.022Z,6.40
2022-10-11T03:35:53.247Z,6.90
2022-10-11T03:38:23.085Z,6.20
2022-10-11T03:40:51.132Z,6.60
2022-10-11T03:43:19.577Z,6.50
2022-10-11T03:45:47.796Z,7.20
2022-10-11T03:48:16.063Z,7.10
2022-10-11T03:50:44.009Z,7.00
2022-10-11T03:53:11.903Z,6.00
2022-10-11T03:55:41.716Z,6.10
2022-10-11T03:58:09.686Z,6.10
2022-10-11T04:00:38.062Z,5.50
2022-10-11T04:03:05.985Z,6.60
2022-10-11T04:05:34.070Z,7.30
2022-10-11T04:08:02.488Z,6.00
2022-10-11T04:10:31.593Z,5.90
2022-10-11T04:13:00.094Z,6.50
2022-10-11T04:15:28.134Z,5.40
2022-10-11T04:17:55.980Z,7.10
2022-10-11T04:20:24.019Z,5.80
2022-10-11T04:22:51.939Z,5.90
2022-10-11T04:25:20.116Z,5.60
2022-10-11T04:27:48.732Z,6.10
2022-10-11T04:30:17.789Z,7.50
2022-10-11T04:32:45.964Z,6.30
2022-10-11T04:35:14.635Z,6.30
2022-10-11T04:37:42.709Z,7.10
2022-10-11T04:40:12.203Z,7.10
2022-10-11T04:42:40.151Z,6.40
2022-10-11T04:45:09.753Z,7.80
2022-10-11T04:47:38.301Z,5.80
2022-10-11T04:50:06.658Z,5.80
2022-10-11T04:52:34.741Z,6.80
2022-10-11T04:55:02.611Z,6.50
2022-10-11T04:57:30.676Z,6.30
2022-10-11T04:59:59.123Z,7.20
2022-10-11T05:02:27.366Z,7.70
2022-10-11T05:04:55.402Z,6.10
2022-10-11T05:07:23.272Z,6.60
2022-10-11T05:09:51.250Z,6.50
2022-10-11T05:12:19.208Z,6.80
2022-10-11T05:14:47.076Z,6.70
2022-10-11T05:17:15.015Z,6.50
2022-10-11T05:19:42.912Z,6.10
2022-10-11T05:22:10.801Z,6.80
2022-10-11T05:24:38.751Z,6.70
2022-10-11T05:27:07.030Z,7.10
2022-10-11T05:29:35.270Z,6.10
2022-10-11T05:32:03.890Z,6.80
2022-10-11T05:34:32.475Z,6.70
2022-10-11T05:37:00.753Z,6.60
2022-10-11T05:39:29.125Z,7.10
2022-10-11T05:41:57.994Z,6.90
2022-10-11T05:44:26.189Z,8.00
2022-10-11T05:46:54.275Z,9.20
2022-10-11T05:49:22.536Z,10.40
2022-10-11T05:51:50.493Z,11.00
2022-10-11T05:54:18.801Z,12.40
2022-10-11T05:56:47.471Z,13.80
2022-10-11T05:59:16.470Z,15.80
2022-10-11T06:01:44.916Z,17.10
2022-10-11T06:04:13.843Z,20.00
2022-10-11T06:06:42.323Z,18.20
2022-10-11T06:09:10.491Z,22.40
2022-10-11T06:11:41.473Z,23.70
2022-10-11T06:14:10.119Z,26.70
2022-10-11T06:16:38.333Z,26.80
2022-10-11T06:19:06.229Z,23.30
2022-10-11T06:21:34.554Z,22.40
2022-10-11T06:24:02.723Z,26.00
2022-10-11T06:26:31.419Z,21.10
2022-10-11T06:29:00.527Z,20.30
2022-10-11T06:31:30.921Z,23.80
2022-10-11T06:34:00.431Z,24.10
2022-10-11T06:36:29.644Z,20.70
2022-10-11T06:39:01.080Z,23.50
2022-10-11T06:41:31.093Z,23.40
2022-10-11T06:43:59.062Z,23.70
2022-10-11T06:46:28.880Z,20.10
2022-10-11T06:48:57.050Z,21.00
2022-10-11T06:51:26.153Z,23.40
2022-10-11T06:53:57.907Z,21.70
2022-10-11T06:56:28.745Z,22.30
2022-10-11T06:58:59.557Z,19.40
2022-10-11T07:01:28.476Z,21.20
2022-10-11T07:03:59.122Z,19.70
2022-10-11T07:06:30.453Z,22.60
2022-10-11T07:09:00.678Z,23.20
2022-10-11T07:11:29.188Z,20.60
2022-10-11T07:14:01.401Z,20.60
2022-10-11T07:16:29.401Z,19.60
2022-10-11T07:19:01.718Z,21.50
2022-10-11T07:21:32.299Z,20.60
2022-10-11T07:24:01.924Z,18.40
2022-10-11T07:26:36.800Z,17.90
2022-10-11T07:29:10.333Z,17.30
2022-10-11T07:31:42.444Z,19.50
2022-10-11T07:34:11.290Z,19.60
2022-10-11T07:36:39.670Z,18.00
2022-10-11T07:39:09.027Z,20.70
2022-10-11T07:41:43.103Z,18.20
2022-10-11T07:44:13.731Z,17.70
2022-10-11T07:46:41.825Z,17.00
2022-10-11T07:49:09.962Z,19.60
2022-10-11T07:51:37.780Z,18.00
2022-10-11T07:54:07.460Z,18.10
2022-10-11T07:56:38.382Z,20.00
2022-10-11T07:59:08.566Z,16.70
2022-10-11T08:01:36.792Z,19.10
2022-10-11T08:04:05.158Z,15.60
2022-10-11T08:06:33.327Z,16.00
2022-10-11T08:09:02.942Z,19.00
2022-10-11T08:11:37.030Z,17.20
2022-10-11T08:14:09.133Z,17.30
2022-10-11T08:16:39.624Z,17.10
2022-10-11T08:19:08.227Z,16.40
2022-10-11T08:21:36.319Z,13.10
2022-10-11T08:24:06.794Z,16.90
2022-10-11T08:26:35.844Z,18.40
2022-10-11T08:29:05.165Z,16.40
2022-10-11T08:31:35.444Z,14.60
2022-10-11T08:34:04.239Z,15.30
2022-10-11T08:36:33.549Z,14.30
2022-10-11T08:39:01.808Z,16.90
2022-10-11T08:41:55.508Z,13.00
2022-10-11T08:44:58.297Z,15.10
2022-10-11T08:47:31.458Z,12.80
2022-10-11T08:50:00.933Z,13.40
2022-10-11T08:52:44.973Z,14.90
2022-10-11T08:55:26.256Z,13.70
2022-10-11T08:57:57.090Z,15.60
2022-10-11T09:00:32.183Z,13.20
2022-10-11T09:03:28.410Z,17.30
2022-10-11T09:06:14.739Z,13.40
2022-10-11T09:08:48.710Z,12.80
2022-10-11T09:11:37.770Z,14.00
2022-10-11T09:14:11.475Z,10.60
2022-10-11T09:16:51.470Z,12.50
2022-10-11T09:20:35.510Z,12.90
2022-10-11T09:23:31.550Z,12.00
2022-10-11T09:26:10.342Z,14.20
2022-10-11T09:29:15.107Z,11.50
2022-10-11T09:31:52.617Z,9.80
2022-10-11T09:34:26.634Z,10.90
2022-10-11T09:37:24.740Z,11.80
2022-10-11T09:40:06.484Z,10.90
2022-10-11T09:42:34.301Z,10.20
2022-10-11T09:45:05.936Z,10.10
2022-10-11T09:47:33.817Z,9.70
2022-10-11T09:50:35.686Z,10.40
2022-10-11T09:53:05.411Z,10.30
2022-10-11T09:55:33.365Z,11.40
2022-10-11T09:58:03.290Z,11.60
2022-10-11T10:00:34.063Z,8.60
2022-10-11T10:03:04.801Z,10.20
2022-10-11T10:05:37.571Z,10.00
2022-10-11T10:08:11.748Z,11.00
2022-10-11T10:10:57.085Z,9.20
2022-10-11T10:13:54.336Z,10.50
2022-10-11T10:16:29.725Z,9.90
2022-10-11T10:19:24.218Z,9.00
2022-10-11T10:21:56.380Z,8.90
2022-10-11T10:24:33.464Z,8.70
2022-10-11T10:27:10.511Z,10.50
2022-10-11T10:29:38.591Z,8.80
2022-10-11T10:32:23.592Z,9.30
2022-10-11T10:35:08.569Z,8.90
2022-10-11T10:37:50.336Z,9.30
2022-10-11T10:40:27.709Z,8.00
2022-10-11T10:42:55.774Z,7.90
2022-10-11T10:45:36.892Z,8.40
2022-10-11T10:49:23.191Z,7.50
2022-10-11T10:52:03.212Z,9.20
2022-10-11T10:54:36.968Z,7.70
2022-10-11T10:57:21.107Z,7.90
2022-10-11T10:59:56.388Z,8.30
2022-10-11T11:02:43.115Z,7.80
2022-10-11T11:05:54.747Z,8.10
2022-10-11T11:08:53.299Z,8.60
2022-10-11T11:11:57.064Z,8.60
2022-10-11T11:14:45.834Z,8.50
2022-10-11T11:17:32.202Z,6.90
2022-10-11T11:20:41.338Z,7.20
2022-10-11T11:23:31.429Z,7.00
2022-10-11T11:26:16.890Z,8.80
2022-10-11T11:29:20.103Z,8.90
2022-10-11T11:32:19.284Z,8.30
2022-10-11T11:34:58.551Z,8.40
2022-10-11T11:37:33.646Z,7.70
2022-10-11T11:40:29.143Z,7.40
2022-10-11T11:45:55.538Z,8.00
2022-10-11T11:48:26.726Z,7.40
2022-10-11T11:51:27.819Z,8.70
2022-10-11T11:54:28.251Z,7.30
2022-10-11T11:57:24.603Z,8.20
2022-10-11T12:00:16.015Z,6.60
2022-10-11T12:03:00.509Z,6.90
2022-10-11T12:05:36.047Z,6.60
2022-10-11T12:08:25.981Z,7.20
2022-10-11T12:11:02.116Z,6.70
2022-10-11T12:13:40.983Z,6.80
2022-10-11T12:16:18.258Z,8.40
2022-10-11T12:19:04.066Z,7.90
2022-10-11T12:21:34.694Z,6.40
2022-10-11T12:24:21.099Z,7.70
2022-10-11T12:26:58.715Z,7.40
2022-10-11T12:29:48.769Z,7.30
2022-10-11T12:33:05.597Z,6.40
2022-10-11T12:35:33.980Z,6.90
2022-10-11T12:38:24.914Z,7.50
2022-10-11T12:41:13.380Z,6.90
2022-10-11T12:43:50.355Z,7.80
2022-10-11T12:46:33.763Z,6.50
2022-10-11T12:49:19.119Z,7.10
2022-10-11T12:52:17.950Z,6.70
2022-10-11T12:55:07.384Z,5.80
2022-10-11T12:58:26.847Z,6.80
2022-10-11T13:00:58.028Z,7.20
2022-10-11T13:03:38.777Z,6.40
2022-10-11T13:06:20.115Z,6.20
2022-10-11T13:09:18.816Z,7.40
2022-10-11T13:11:55.239Z,7.70
2022-10-11T13:14:27.514Z,6.60
2022-10-11T13:17:04.164Z,6.50
2022-10-11T13:19:38.219Z,6.30
2022-10-11T13:22:21.501Z,5.90
2022-10-11T13:24:49.597Z,6.40
2022-10-11T13:27:23.196Z,6.50
2022-10-11T13:29:55.694Z,6.60
2022-10-11T13:32:28.396Z,5.40
2022-10-11T13:35:02.071Z,6.20
2022-10-11T13:37:41.679Z,7.20
2022-10-11T13:40:15.876Z,6.50
2022-10-11T13:42:45.098Z,6.50
2022-10-11T13:45:16.686Z,6.20
2022-10-11T13:47:46.276Z,5.30
2022-10-11T13:50:17.128Z,6.60
2022-10-11T13:52:55.567Z,6.00
2022-10-11T13:55:32.221Z,6.00
2022-10-11T13:58:11.216Z,5.70
2022-10-11T14:01:04.843Z,8.10
2022-10-11T14:03:41.392Z,7.10
2022-10-11T14:06:10.540Z,5.20
2022-10-11T14:08:55.444Z,5.50
2022-10-11T14:11:39.876Z,5.90
2022-10-11T14:14:33.027Z,6.20
2022-10-11T14:17:15.496Z,6.40
2022-10-11T14:19:47.081Z,5.80
2022-10-11T14:22:18.410Z,5.50
2022-10-11T14:24:49.379Z,6.00
2022-10-11T14:27:23.974Z,5.20
2022-10-11T14:30:19.905Z,5.10
2022-10-11T14:32:42.402Z,5.10
2022-10-11T14:35:18.973Z,6.70
2022-10-11T14:37:47.752Z,4.80
2022-10-11T14:40:22.762Z,5.00
2022-10-11T14:42:51.859Z,5.10
2022-10-11T14:45:21.487Z,5.90
2022-10-11T14:47:50.444Z,5.90
2022-10-11T14:50:48.934Z,5.40
2022-10-11T14:53:17.427Z,5.40
2022-10-11T14:55:45.557Z,5.20
2022-10-11T14:58:16.507Z,5.50
2022-10-11T15:00:46.071Z,5.50
2022-10-11T15:03:15.249Z,6.90
2022-10-11T15:05:43.379Z,6.30
2022-10-11T15:08:12.514Z,5.10
2022-10-11T15:10:42.190Z,6.80
2022-10-11T15:13:10.296Z,4.90
2022-10-11T15:15:41.952Z,5.30
2022-10-11T15:18:13.929Z,5.10
2022-10-11T15:20:45.718Z,5.40
2022-10-11T15:23:14.462Z,8.10
2022-10-11T15:25:42.996Z,5.30
2022-10-11T15:28:25.353Z,6.00
2022-10-11T15:30:54.866Z,6.00
2022-10-11T15:33:24.082Z,5.90
2022-10-11T15:35:53.015Z,4.60
2022-10-11T15:38:25.339Z,5.40
2022-10-11T15:40:54.703Z,5.70
2022-10-11T15:43:25.036Z,4.40
2022-10-11T15:45:56.396Z,5.50
2022-10-11T15:48:27.140Z,5.60
2022-10-11T15:50:56.014Z,4.40
2022-10-11T15:53:30.267Z,5.50
2022-10-11T15:56:02.287Z,5.80
2022-10-11T15:58:37.114Z,5.80
2022-10-11T16:01:10.006Z,5.10
2022-10-11T16:03:38.291Z,4.60
2022-10-11T16:06:07.252Z,4.50
2022-10-11T16:08:36.384Z,6.10
2022-10-11T16:11:06.331Z,4.70
2022-10-11T16:13:35.976Z,5.30
2022-10-11T16:16:08.842Z,5.20
2022-10-11T16:18:38.200Z,6.60
2022-10-11T16:21:10.401Z,4.70
2022-10-11T16:23:39.148Z,4.80
2022-10-11T16:26:13.505Z,5.40
2022-10-11T16:28:42.316Z,4.10
2022-10-11T16:31:14.847Z,5.80
2022-10-11T16:33:46.329Z,6.10
2022-10-11T16:36:35.704Z,5.70
2022-10-11T16:39:15.718Z,6.30
2022-10-11T16:41:44.019Z,5.30
2022-10-11T16:44:21.627Z,4.40
2022-10-11T16:46:49.758Z,5.20
2022-10-11T16:49:23.408Z,4.40
2022-10-11T16:51:53.898Z,5.00
2022-10-11T16:54:22.544Z,4.80
2022-10-11T16:56:51.167Z,5.40
2022-10-11T16:59:20.767Z,5.70
2022-10-11T17:01:49.348Z,4.70
2022-10-11T17:04:17.631Z,4.90
2022-10-11T17:06:46.013Z,6.30
2022-10-11T17:09:16.129Z,5.30
2022-10-11T17:11:44.298Z,5.40
2022-10-11T17:14:13.939Z,4.60
2022-10-11T17:16:42.695Z,5.20
2022-10-11T17:19:14.386Z,5.70
2022-10-11T17:21:43.343Z,7.00
2022-10-11T17:24:11.771Z,7.10
2022-10-11T17:26:39.866Z,6.90
2022-10-11T17:29:07.867Z,5.90
2022-10-11T17:31:38.513Z,5.70
2022-10-11T17:34:06.774Z,5.70
2022-10-11T17:36:34.971Z,5.80
2022-10-11T17:39:08.526Z,6.40
2022-10-11T17:41:36.639Z,7.00
2022-10-11T17:44:05.350Z,6.90
2022-10-11T17:46:33.587Z,6.20
2022-10-11T17:49:05.065Z,8.10
2022-10-11T17:51:36.382Z,6.80
2022-10-11T17:54:06.186Z,9.70
2022-10-11T17:56:38.028Z,8.20
2022-10-11T17:59:08.214Z,7.20
2022-10-11T18:01:36.707Z,9.00
2022-10-11T18:04:06.391Z,8.10
2022-10-11T18:06:39.685Z,7.90
2022-10-11T18:09:07.704Z,8.80
2022-10-11T18:11:35.707Z,8.60
2022-10-11T18:14:05.389Z,10.40
2022-10-11T18:16:35.828Z,10.30
2022-10-11T18:19:08.173Z,10.20
2022-10-11T18:21:37.863Z,9.40
2022-10-11T18:24:15.712Z,9.60
2022-10-11T18:26:45.452Z,11.70
2022-10-11T18:29:13.713Z,10.50
2022-10-11T18:31:42.519Z,8.90
2022-10-11T18:34:13.094Z,9.10
2022-10-11T18:36:41.103Z,8.40
2022-10-11T18:39:14.158Z,10.20
2022-10-11T18:41:44.767Z,9.80
2022-10-11T18:44:16.026Z,9.30
2022-10-11T18:46:45.280Z,9.30
2022-10-11T18:49:14.264Z,8.90
2022-10-11T18:51:45.031Z,11.60
2022-10-11T18:54:16.715Z,10.80
2022-10-11T18:56:49.234Z,9.70
2022-10-11T18:59:17.699Z,10.80
2022-10-11T19:01:45.970Z,8.80
2022-10-11T19:04:18.564Z,10.20
2022-10-11T19:06:48.829Z,10.30
2022-10-11T19:09:22.544Z,10.40
2022-10-11T19:11:53.937Z,12.80
2022-10-11T19:14:26.040Z,11.20
2022-10-11T19:16:55.107Z,10.00
2022-10-11T19:19:29.082Z,12.10
2022-10-11T19:21:57.597Z,10.80
2022-10-11T19:24:30.259Z,9.40
2022-10-11T19:27:02.577Z,10.30
2022-10-11T19:29:33.284Z,9.90
2022-10-11T19:32:05.687Z,9.40
2022-10-11T19:34:33.831Z,11.20
2022-10-11T19:37:03.453Z,13.10
2022-10-11T19:39:32.021Z,12.20
2022-10-11T19:42:00.932Z,13.90
2022-10-11T19:44:29.661Z,10.30
2022-10-11T19:47:01.456Z,12.90
2022-10-11T19:52:01.604Z,12.10
2022-10-11T19:54:29.876Z,12.00
2022-10-11T19:56:58.041Z,12.10
2022-10-11T19:59:27.014Z,15.10
2022-10-11T20:01:55.111Z,13.80
2022-10-11T20:04:50.503Z,13.40
2022-10-11T20:07:11.735Z,11.70
2022-10-11T20:09:40.218Z,11.50
2022-10-11T20:12:09.108Z,11.20
2022-10-11T20:14:37.294Z,10.40
2022-10-11T20:17:05.684Z,13.90
2022-10-11T20:19:35.487Z,9.90
2022-10-11T20:22:04.160Z,11.80
2022-10-11T20:24:34.616Z,11.80
2022-10-11T20:27:06.860Z,13.00
2022-10-11T20:29:35.692Z,11.10
2022-10-11T20:32:03.767Z,13.40
2022-10-11T20:34:31.893Z,14.40
2022-10-11T20:37:00.171Z,11.80
2022-10-11T20:39:28.345Z,13.00
2022-10-11T20:41:56.270Z,10.50
2022-10-11T20:44:24.382Z,10.50
2022-10-11T20:46:52.663Z,12.40
2022-10-11T20:49:20.839Z,11.20
2022-10-11T20:51:49.623Z,11.40
2022-10-11T20:54:17.903Z,12.00
2022-10-11T20:56:46.485Z,12.50
2022-10-11T20:59:14.659Z,12.60
2022-10-11T21:01:43.298Z,11.00
2022-10-11T21:04:20.835Z,11.00
2022-10-11T21:06:49.421Z,11.20
2022-10-11T21:09:18.005Z,9.70
2022-10-11T21:11:46.370Z,11.30
2022-10-11T21:14:15.275Z,10.60
2022-10-11T21:16:43.657Z,10.30
2022-10-11T21:19:15.361Z,10.70
2022-10-11T21:21:52.473Z,9.60
2022-10-11T21:24:23.128Z,10.20
2022-10-11T21:26:51.127Z,9.50
2022-10-11T21:29:19.332Z,8.50
2022-10-11T21:31:48.164Z,11.40
2022-10-11T21:34:16.336Z,12.80
2022-10-11T21:36:44.822Z,9.40
2022-10-11T21:39:13.096Z,9.90
2022-10-11T21:41:42.394Z,8.40
2022-10-11T21:44:10.570Z,9.40
2022-10-11T21:49:26.781Z,11.60
2022-10-11T21:51:55.538Z,10.50
2022-10-11T21:54:23.853Z,9.70
2022-10-11T21:56:51.824Z,11.70
2022-10-11T21:59:22.348Z,12.30
2022-10-11T22:01:51.314Z,8.70
2022-10-11T22:04:19.622Z,9.10
2022-10-11T22:06:47.790Z,9.20
2022-10-11T22:09:15.760Z,9.30
2022-10-11T22:11:43.732Z,10.80
2022-10-11T22:14:11.948Z,8.70
2022-10-11T22:16:41.202Z,9.00
2022-10-11T22:19:09.115Z,7.70
2022-10-11T22:21:39.181Z,10.30
2022-10-11T22:24:10.436Z,8.30
2022-10-11T22:26:38.519Z,7.60
2022-10-11T22:29:06.580Z,8.40
2022-10-11T22:31:35.706Z,9.00
2022-10-11T22:34:04.153Z,8.60
2022-10-11T22:36:33.995Z,8.00
2022-10-11T22:39:07.721Z,8.40
2022-10-11T22:41:36.574Z,7.50
2022-10-11T22:44:05.663Z,8.70
2022-10-11T22:46:33.616Z,9.90
2022-10-11T22:49:01.602Z,9.10
2022-10-11T22:51:29.492Z,7.30
2022-10-11T22:53:57.391Z,8.00
2022-10-11T22:56:25.385Z,7.20
2022-10-11T22:58:53.279Z,7.50
2022-10-11T23:01:21.137Z,7.50
2022-10-11T23:03:50.777Z,8.50
2022-10-11T23:06:18.881Z,8.30
2022-10-11T23:08:46.709Z,6.90
2022-10-11T23:11:14.549Z,6.90
2022-10-11T23:13:42.536Z,7.90
2022-10-11T23:16:12.896Z,7.80
2022-10-11T23:18:41.538Z,8.90
2022-10-11T23:21:09.734Z,7.00
2022-10-11T23:23:40.004Z,6.60
2022-10-11T23:26:13.225Z,7.90
2022-10-11T23:28:43.153Z,7.30
2022-10-11T23:31:16.546Z,7.40
2022-10-11T23:33:46.300Z,7.90
2022-10-11T23:36:16.833Z,8.50
2022-10-11T23:38:45.906Z,8.30
2022-10-11T23:41:13.840Z,7.60
2022-10-11T23:43:41.943Z,7.80
2022-10-11T23:46:10.107Z,9.10
2022-10-11T23:48:38.039Z,8.20
2022-10-11T23:51:07.316Z,6.60
2022-10-11T23:53:36.391Z,7.30
2022-10-11T23:56:06.273Z,6.90
2022-10-11T23:58:34.237Z,7.10
